Terminal Aerodrome Forecast
Issued by NWS Denver/Boulder, CO

Home | Current Version | Previous Version | Text Only | Print | Product List | Glossary On
Versions: 1 2 3 4 5 6 7 8 9 10 11 12 13 14 15 16 17 18 19 20 21 22 23 24 25 26 27 28 29 30 31 32 33 34 35 36 37 38 39 40 41 42 43 44 45 46 47 48 49 50
680
FTUS45 KBOU 221230 AAA
TAFDEN
TAF AMD
KDEN 221230Z 2213/2318 03012G18KT P6SM FEW120
     FM221400 09012KT P6SM FEW120
     FM221600 28014G21KT P6SM FEW120
     FM222000 31012KT P6SM SCT100
     FM230000 03012KT P6SM SCT100 BKN150
     FM230400 17008KT P6SM SCT100 BKN150
     FM231000 36008KT P6SM SCT070 BKN100
     FM231600 34014G22KT P6SM SCT070 BKN100=

USA.gov is the U.S. government's official web portal to all federal, state and local government web resources and services.